sensor_id;sensor_type;location;lat;lon;timestamp;P1;durP1;ratioP1;P2;durP2;ratioP2
75358;SDS011;64046;51.978;5.934;2022-10-19T00:01:38;4.60;;;1.75;;
75358;SDS011;64046;51.978;5.934;2022-10-19T00:04:07;6.03;;;2.00;;
75358;SDS011;64046;51.978;5.934;2022-10-19T00:06:36;6.85;;;1.63;;
75358;SDS011;64046;51.978;5.934;2022-10-19T00:09:07;8.05;;;2.05;;
75358;SDS011;64046;51.978;5.934;2022-10-19T00:11:41;4.13;;;1.80;;
75358;SDS011;64046;51.978;5.934;2022-10-19T00:14:12;6.20;;;2.13;;
75358;SDS011;64046;51.978;5.934;2022-10-19T00:16:43;8.85;;;2.72;;
75358;SDS011;64046;51.978;5.934;2022-10-19T00:19:14;12.98;;;3.65;;
75358;SDS011;64046;51.978;5.934;2022-10-19T00:21:45;9.63;;;3.10;;
75358;SDS011;64046;51.978;5.934;2022-10-19T00:24:15;10.02;;;2.92;;
75358;SDS011;64046;51.978;5.934;2022-10-19T00:26:46;9.18;;;2.50;;
75358;SDS011;64046;51.978;5.934;2022-10-19T00:29:16;8.57;;;2.95;;
75358;SDS011;64046;51.978;5.934;2022-10-19T00:31:45;7.80;;;2.58;;
75358;SDS011;64046;51.978;5.934;2022-10-19T00:34:16;8.07;;;3.22;;
75358;SDS011;64046;51.978;5.934;2022-10-19T00:36:46;5.50;;;2.22;;
75358;SDS011;64046;51.978;5.934;2022-10-19T00:39:15;8.45;;;2.10;;
75358;SDS011;64046;51.978;5.934;2022-10-19T00:41:48;8.20;;;2.55;;
75358;SDS011;64046;51.978;5.934;2022-10-19T00:47:16;6.28;;;2.15;;
75358;SDS011;64046;51.978;5.934;2022-10-19T00:49:50;6.57;;;2.25;;
75358;SDS011;64046;51.978;5.934;2022-10-19T00:52:20;8.38;;;2.67;;
75358;SDS011;64046;51.978;5.934;2022-10-19T00:54:52;2.67;;;1.67;;
75358;SDS011;64046;51.978;5.934;2022-10-19T00:57:28;8.40;;;2.58;;
75358;SDS011;64046;51.978;5.934;2022-10-19T00:59:59;6.45;;;2.35;;
75358;SDS011;64046;51.978;5.934;2022-10-19T01:02:31;5.38;;;1.65;;
75358;SDS011;64046;51.978;5.934;2022-10-19T01:05:00;5.57;;;2.28;;
75358;SDS011;64046;51.978;5.934;2022-10-19T01:07:29;6.60;;;1.70;;
75358;SDS011;64046;51.978;5.934;2022-10-19T01:09:59;5.93;;;1.73;;
75358;SDS011;64046;51.978;5.934;2022-10-19T01:12:39;6.55;;;2.00;;
75358;SDS011;64046;51.978;5.934;2022-10-19T01:15:27;5.15;;;1.83;;
75358;SDS011;64046;51.978;5.934;2022-10-19T01:18:05;5.63;;;2.63;;
75358;SDS011;64046;51.978;5.934;2022-10-19T01:20:44;5.40;;;2.10;;
75358;SDS011;64046;51.978;5.934;2022-10-19T01:23:29;5.13;;;2.10;;
75358;SDS011;64046;51.978;5.934;2022-10-19T01:26:24;7.30;;;2.53;;
75358;SDS011;64046;51.978;5.934;2022-10-19T01:29:12;5.05;;;2.10;;
75358;SDS011;64046;51.978;5.934;2022-10-19T01:31:53;6.60;;;2.00;;
75358;SDS011;64046;51.978;5.934;2022-10-19T01:34:27;6.30;;;2.40;;
75358;SDS011;64046;51.978;5.934;2022-10-19T01:37:01;5.35;;;2.15;;
75358;SDS011;64046;51.978;5.934;2022-10-19T01:39:40;10.77;;;2.25;;
75358;SDS011;64046;51.978;5.934;2022-10-19T01:42:19;7.90;;;2.30;;
75358;SDS011;64046;51.978;5.934;2022-10-19T01:44:57;5.25;;;2.13;;
75358;SDS011;64046;51.978;5.934;2022-10-19T01:47:35;8.60;;;2.45;;
75358;SDS011;64046;51.978;5.934;2022-10-19T01:50:09;5.60;;;2.55;;
75358;SDS011;64046;51.978;5.934;2022-10-19T01:52:43;6.28;;;2.22;;
75358;SDS011;64046;51.978;5.934;2022-10-19T01:55:14;7.43;;;2.78;;
75358;SDS011;64046;51.978;5.934;2022-10-19T01:57:45;5.60;;;2.97;;
75358;SDS011;64046;51.978;5.934;2022-10-19T02:00:17;7.18;;;2.17;;
75358;SDS011;64046;51.978;5.934;2022-10-19T02:02:52;6.97;;;2.30;;
75358;SDS011;64046;51.978;5.934;2022-10-19T02:05:23;5.82;;;1.67;;
75358;SDS011;64046;51.978;5.934;2022-10-19T02:07:58;5.65;;;2.20;;
75358;SDS011;64046;51.978;5.934;2022-10-19T02:10:31;7.35;;;2.35;;
75358;SDS011;64046;51.978;5.934;2022-10-19T02:13:04;6.35;;;2.17;;
75358;SDS011;64046;51.978;5.934;2022-10-19T02:15:36;7.03;;;2.15;;
75358;SDS011;64046;51.978;5.934;2022-10-19T02:18:11;5.15;;;2.05;;
75358;SDS011;64046;51.978;5.934;2022-10-19T02:20:41;5.05;;;1.80;;
75358;SDS011;64046;51.978;5.934;2022-10-19T02:23:11;6.22;;;2.10;;
75358;SDS011;64046;51.978;5.934;2022-10-19T02:25:42;5.47;;;1.88;;
75358;SDS011;64046;51.978;5.934;2022-10-19T02:28:11;8.88;;;2.40;;
75358;SDS011;64046;51.978;5.934;2022-10-19T02:30:40;6.72;;;2.47;;
75358;SDS011;64046;51.978;5.934;2022-10-19T02:33:13;9.23;;;2.45;;
75358;SDS011;64046;51.978;5.934;2022-10-19T02:35:42;10.38;;;2.10;;
75358;SDS011;64046;51.978;5.934;2022-10-19T02:38:13;9.95;;;1.98;;
75358;SDS011;64046;51.978;5.934;2022-10-19T02:40:53;7.53;;;2.40;;
75358;SDS011;64046;51.978;5.934;2022-10-19T02:43:28;3.28;;;1.77;;
75358;SDS011;64046;51.978;5.934;2022-10-19T02:46:01;6.53;;;2.35;;
75358;SDS011;64046;51.978;5.934;2022-10-19T02:48:40;5.80;;;2.33;;
75358;SDS011;64046;51.978;5.934;2022-10-19T02:53:54;7.47;;;2.70;;
75358;SDS011;64046;51.978;5.934;2022-10-19T02:56:23;6.88;;;2.15;;
75358;SDS011;64046;51.978;5.934;2022-10-19T02:58:52;5.03;;;2.03;;
75358;SDS011;64046;51.978;5.934;2022-10-19T03:01:23;5.38;;;2.20;;
75358;SDS011;64046;51.978;5.934;2022-10-19T03:03:55;7.13;;;1.70;;
75358;SDS011;64046;51.978;5.934;2022-10-19T03:06:24;3.85;;;2.17;;
75358;SDS011;64046;51.978;5.934;2022-10-19T03:08:53;5.22;;;2.20;;
75358;SDS011;64046;51.978;5.934;2022-10-19T03:11:22;8.23;;;2.22;;
75358;SDS011;64046;51.978;5.934;2022-10-19T03:13:51;3.03;;;1.77;;
75358;SDS011;64046;51.978;5.934;2022-10-19T03:16:20;6.45;;;1.85;;
75358;SDS011;64046;51.978;5.934;2022-10-19T03:18:49;4.55;;;1.60;;
75358;SDS011;64046;51.978;5.934;2022-10-19T03:21:22;4.72;;;1.75;;
75358;SDS011;64046;51.978;5.934;2022-10-19T03:23:51;7.75;;;2.05;;
75358;SDS011;64046;51.978;5.934;2022-10-19T03:26:20;4.10;;;1.58;;
75358;SDS011;64046;51.978;5.934;2022-10-19T03:28:49;3.38;;;1.30;;
75358;SDS011;64046;51.978;5.934;2022-10-19T03:31:18;4.18;;;1.65;;
75358;SDS011;64046;51.978;5.934;2022-10-19T03:33:47;3.83;;;2.00;;
75358;SDS011;64046;51.978;5.934;2022-10-19T03:36:23;8.85;;;3.90;;
75358;SDS011;64046;51.978;5.934;2022-10-19T03:38:54;5.85;;;2.05;;
75358;SDS011;64046;51.978;5.934;2022-10-19T03:41:24;4.10;;;1.77;;
75358;SDS011;64046;51.978;5.934;2022-10-19T03:43:55;4.20;;;1.67;;
75358;SDS011;64046;51.978;5.934;2022-10-19T03:46:24;5.80;;;1.80;;
75358;SDS011;64046;51.978;5.934;2022-10-19T03:48:54;4.78;;;1.55;;
75358;SDS011;64046;51.978;5.934;2022-10-19T03:51:26;6.60;;;1.98;;
75358;SDS011;64046;51.978;5.934;2022-10-19T03:53:57;3.13;;;1.60;;
75358;SDS011;64046;51.978;5.934;2022-10-19T03:56:28;6.88;;;2.60;;
75358;SDS011;64046;51.978;5.934;2022-10-19T03:58:58;2.60;;;1.80;;
75358;SDS011;64046;51.978;5.934;2022-10-19T04:01:29;4.97;;;1.90;;
75358;SDS011;64046;51.978;5.934;2022-10-19T04:04:00;5.35;;;2.20;;
75358;SDS011;64046;51.978;5.934;2022-10-19T04:06:34;7.45;;;1.90;;
75358;SDS011;64046;51.978;5.934;2022-10-19T04:09:04;3.25;;;1.70;;
75358;SDS011;64046;51.978;5.934;2022-10-19T04:11:35;4.25;;;1.98;;
75358;SDS011;64046;51.978;5.934;2022-10-19T04:14:05;5.20;;;2.00;;
75358;SDS011;64046;51.978;5.934;2022-10-19T04:16:34;5.55;;;1.80;;
75358;SDS011;64046;51.978;5.934;2022-10-19T04:19:03;6.57;;;2.05;;
75358;SDS011;64046;51.978;5.934;2022-10-19T04:21:35;5.93;;;2.05;;
75358;SDS011;64046;51.978;5.934;2022-10-19T04:24:07;5.97;;;2.03;;
75358;SDS011;64046;51.978;5.934;2022-10-19T04:26:38;3.92;;;1.90;;
75358;SDS011;64046;51.978;5.934;2022-10-19T04:29:08;3.60;;;2.08;;
75358;SDS011;64046;51.978;5.934;2022-10-19T04:31:38;3.47;;;1.83;;
75358;SDS011;64046;51.978;5.934;2022-10-19T04:34:08;7.13;;;1.98;;
75358;SDS011;64046;51.978;5.934;2022-10-19T04:36:39;7.32;;;2.65;;
75358;SDS011;64046;51.978;5.934;2022-10-19T04:39:08;4.47;;;2.30;;
75358;SDS011;64046;51.978;5.934;2022-10-19T04:41:38;11.57;;;2.72;;
75358;SDS011;64046;51.978;5.934;2022-10-19T04:44:08;7.85;;;2.40;;
75358;SDS011;64046;51.978;5.934;2022-10-19T04:46:37;3.22;;;2.15;;
75358;SDS011;64046;51.978;5.934;2022-10-19T04:49:06;4.25;;;2.38;;
75358;SDS011;64046;51.978;5.934;2022-10-19T04:51:35;6.30;;;2.53;;
75358;SDS011;64046;51.978;5.934;2022-10-19T04:54:07;4.38;;;2.40;;
75358;SDS011;64046;51.978;5.934;2022-10-19T04:56:36;4.97;;;2.60;;
75358;SDS011;64046;51.978;5.934;2022-10-19T04:59:05;7.90;;;2.63;;
75358;SDS011;64046;51.978;5.934;2022-10-19T05:01:34;6.35;;;2.60;;
75358;SDS011;64046;51.978;5.934;2022-10-19T05:04:03;3.95;;;2.15;;
75358;SDS011;64046;51.978;5.934;2022-10-19T05:06:32;6.32;;;2.50;;
75358;SDS011;64046;51.978;5.934;2022-10-19T05:09:01;6.15;;;2.85;;
75358;SDS011;64046;51.978;5.934;2022-10-19T05:11:33;8.68;;;2.40;;
75358;SDS011;64046;51.978;5.934;2022-10-19T05:14:02;6.18;;;2.58;;
75358;SDS011;64046;51.978;5.934;2022-10-19T05:16:31;7.15;;;2.28;;
75358;SDS011;64046;51.978;5.934;2022-10-19T05:19:00;8.80;;;2.30;;
75358;SDS011;64046;51.978;5.934;2022-10-19T05:21:29;7.97;;;2.30;;
75358;SDS011;64046;51.978;5.934;2022-10-19T05:23:58;4.40;;;2.35;;
75358;SDS011;64046;51.978;5.934;2022-10-19T05:26:27;4.10;;;2.30;;
75358;SDS011;64046;51.978;5.934;2022-10-19T05:28:59;6.78;;;2.58;;
75358;SDS011;64046;51.978;5.934;2022-10-19T05:31:31;4.05;;;2.03;;
75358;SDS011;64046;51.978;5.934;2022-10-19T05:34:01;4.20;;;2.15;;
75358;SDS011;64046;51.978;5.934;2022-10-19T05:36:31;6.00;;;2.58;;
75358;SDS011;64046;51.978;5.934;2022-10-19T05:39:02;4.63;;;2.30;;
75358;SDS011;64046;51.978;5.934;2022-10-19T05:41:34;8.38;;;5.03;;
75358;SDS011;64046;51.978;5.934;2022-10-19T05:44:05;6.78;;;3.17;;
75358;SDS011;64046;51.978;5.934;2022-10-19T05:46:35;6.28;;;2.58;;
75358;SDS011;64046;51.978;5.934;2022-10-19T05:49:04;3.90;;;2.20;;
75358;SDS011;64046;51.978;5.934;2022-10-19T05:51:33;5.63;;;2.30;;
75358;SDS011;64046;51.978;5.934;2022-10-19T05:54:02;3.85;;;2.00;;
75358;SDS011;64046;51.978;5.934;2022-10-19T05:56:32;5.85;;;2.35;;
75358;SDS011;64046;51.978;5.934;2022-10-19T05:59:02;5.75;;;2.70;;
75358;SDS011;64046;51.978;5.934;2022-10-19T06:01:35;4.28;;;2.60;;
75358;SDS011;64046;51.978;5.934;2022-10-19T06:04:04;7.57;;;2.83;;
75358;SDS011;64046;51.978;5.934;2022-10-19T06:06:35;5.00;;;2.80;;
75358;SDS011;64046;51.978;5.934;2022-10-19T06:09:04;3.42;;;2.45;;
75358;SDS011;64046;51.978;5.934;2022-10-19T06:11:34;5.78;;;2.72;;
75358;SDS011;64046;51.978;5.934;2022-10-19T06:14:08;4.97;;;3.03;;
75358;SDS011;64046;51.978;5.934;2022-10-19T06:16:40;11.93;;;10.63;;
75358;SDS011;64046;51.978;5.934;2022-10-19T06:19:10;5.30;;;4.28;;
75358;SDS011;64046;51.978;5.934;2022-10-19T06:21:39;4.20;;;3.03;;
75358;SDS011;64046;51.978;5.934;2022-10-19T06:24:08;4.70;;;2.53;;
75358;SDS011;64046;51.978;5.934;2022-10-19T06:26:38;6.65;;;2.80;;
75358;SDS011;64046;51.978;5.934;2022-10-19T06:29:10;10.73;;;2.60;;
75358;SDS011;64046;51.978;5.934;2022-10-19T06:31:39;8.02;;;2.85;;
75358;SDS011;64046;51.978;5.934;2022-10-19T06:34:08;5.70;;;2.30;;
75358;SDS011;64046;51.978;5.934;2022-10-19T06:36:37;5.47;;;1.88;;
75358;SDS011;64046;51.978;5.934;2022-10-19T06:39:06;4.75;;;1.92;;
75358;SDS011;64046;51.978;5.934;2022-10-19T06:41:35;7.90;;;2.58;;
75358;SDS011;64046;51.978;5.934;2022-10-19T06:44:19;7.03;;;2.28;;
75358;SDS011;64046;51.978;5.934;2022-10-19T06:46:49;6.32;;;2.50;;
75358;SDS011;64046;51.978;5.934;2022-10-19T06:49:18;10.40;;;3.38;;
75358;SDS011;64046;51.978;5.934;2022-10-19T06:51:47;9.93;;;3.65;;
75358;SDS011;64046;51.978;5.934;2022-10-19T06:54:16;6.18;;;3.17;;
75358;SDS011;64046;51.978;5.934;2022-10-19T06:56:45;7.07;;;3.15;;
75358;SDS011;64046;51.978;5.934;2022-10-19T06:59:14;9.93;;;4.18;;
75358;SDS011;64046;51.978;5.934;2022-10-19T07:01:46;6.85;;;3.95;;
75358;SDS011;64046;51.978;5.934;2022-10-19T07:04:15;6.80;;;4.10;;
75358;SDS011;64046;51.978;5.934;2022-10-19T07:06:44;18.83;;;6.50;;
75358;SDS011;64046;51.978;5.934;2022-10-19T07:09:13;12.27;;;4.50;;
75358;SDS011;64046;51.978;5.934;2022-10-19T07:11:43;8.45;;;4.65;;
75358;SDS011;64046;51.978;5.934;2022-10-19T07:14:12;5.93;;;3.60;;
75358;SDS011;64046;51.978;5.934;2022-10-19T07:16:42;10.13;;;4.03;;
75358;SDS011;64046;51.978;5.934;2022-10-19T07:19:13;7.43;;;3.40;;
75358;SDS011;64046;51.978;5.934;2022-10-19T07:21:42;8.57;;;4.20;;
75358;SDS011;64046;51.978;5.934;2022-10-19T07:24:11;6.47;;;3.88;;
75358;SDS011;64046;51.978;5.934;2022-10-19T07:26:40;12.45;;;3.95;;
75358;SDS011;64046;51.978;5.934;2022-10-19T07:29:10;6.60;;;4.30;;
75358;SDS011;64046;51.978;5.934;2022-10-19T07:31:39;9.65;;;4.47;;
75358;SDS011;64046;51.978;5.934;2022-10-19T07:34:09;9.38;;;4.13;;
75358;SDS011;64046;51.978;5.934;2022-10-19T07:36:43;9.85;;;4.15;;
75358;SDS011;64046;51.978;5.934;2022-10-19T07:39:13;7.63;;;4.05;;
75358;SDS011;64046;51.978;5.934;2022-10-19T07:41:43;9.55;;;4.05;;
75358;SDS011;64046;51.978;5.934;2022-10-19T07:44:13;9.00;;;3.58;;
75358;SDS011;64046;51.978;5.934;2022-10-19T07:46:43;8.60;;;4.93;;
75358;SDS011;64046;51.978;5.934;2022-10-19T07:49:12;10.73;;;4.38;;
75358;SDS011;64046;51.978;5.934;2022-10-19T07:51:47;7.85;;;4.18;;
75358;SDS011;64046;51.978;5.934;2022-10-19T07:54:18;6.93;;;3.45;;
75358;SDS011;64046;51.978;5.934;2022-10-19T07:56:49;7.75;;;3.80;;
75358;SDS011;64046;51.978;5.934;2022-10-19T07:59:18;8.23;;;3.42;;
75358;SDS011;64046;51.978;5.934;2022-10-19T08:01:47;7.93;;;4.20;;
75358;SDS011;64046;51.978;5.934;2022-10-19T08:04:17;6.05;;;2.83;;
75358;SDS011;64046;51.978;5.934;2022-10-19T08:06:49;3.65;;;2.15;;
75358;SDS011;64046;51.978;5.934;2022-10-19T08:09:18;5.80;;;3.08;;
75358;SDS011;64046;51.978;5.934;2022-10-19T08:11:47;6.05;;;2.60;;
75358;SDS011;64046;51.978;5.934;2022-10-19T08:14:16;7.60;;;3.85;;
75358;SDS011;64046;51.978;5.934;2022-10-19T08:16:45;4.25;;;2.35;;
75358;SDS011;64046;51.978;5.934;2022-10-19T08:19:16;9.48;;;2.85;;
75358;SDS011;64046;51.978;5.934;2022-10-19T08:21:45;7.22;;;2.75;;
75358;SDS011;64046;51.978;5.934;2022-10-19T08:24:18;7.07;;;2.72;;
75358;SDS011;64046;51.978;5.934;2022-10-19T08:26:48;6.32;;;2.92;;
75358;SDS011;64046;51.978;5.934;2022-10-19T08:29:18;3.95;;;2.35;;
75358;SDS011;64046;51.978;5.934;2022-10-19T08:31:48;7.13;;;3.25;;
75358;SDS011;64046;51.978;5.934;2022-10-19T08:34:17;6.43;;;2.42;;
75358;SDS011;64046;51.978;5.934;2022-10-19T08:36:47;5.78;;;2.15;;
75358;SDS011;64046;51.978;5.934;2022-10-19T08:39:18;7.72;;;2.80;;
75358;SDS011;64046;51.978;5.934;2022-10-19T08:47:44;8.68;;;4.30;;
75358;SDS011;64046;51.978;5.934;2022-10-19T08:50:24;6.50;;;3.03;;
75358;SDS011;64046;51.978;5.934;2022-10-19T08:52:57;12.40;;;3.60;;
75358;SDS011;64046;51.978;5.934;2022-10-19T08:55:38;10.48;;;2.97;;
75358;SDS011;64046;51.978;5.934;2022-10-19T08:58:17;5.70;;;1.77;;
75358;SDS011;64046;51.978;5.934;2022-10-19T09:00:54;4.38;;;2.10;;
75358;SDS011;64046;51.978;5.934;2022-10-19T09:03:30;4.13;;;2.30;;
75358;SDS011;64046;51.978;5.934;2022-10-19T09:06:07;6.72;;;2.63;;
75358;SDS011;64046;51.978;5.934;2022-10-19T09:08:45;6.55;;;2.60;;
75358;SDS011;64046;51.978;5.934;2022-10-19T09:11:19;4.45;;;2.33;;
75358;SDS011;64046;51.978;5.934;2022-10-19T09:13:54;7.22;;;3.10;;
75358;SDS011;64046;51.978;5.934;2022-10-19T09:16:30;6.65;;;2.55;;
75358;SDS011;64046;51.978;5.934;2022-10-19T09:19:00;7.70;;;2.40;;
75358;SDS011;64046;51.978;5.934;2022-10-19T09:21:31;8.13;;;2.55;;
75358;SDS011;64046;51.978;5.934;2022-10-19T09:24:15;5.28;;;2.13;;
75358;SDS011;64046;51.978;5.934;2022-10-19T09:26:59;7.80;;;2.22;;
75358;SDS011;64046;51.978;5.934;2022-10-19T09:29:31;7.43;;;2.08;;
75358;SDS011;64046;51.978;5.934;2022-10-19T09:32:09;5.50;;;2.45;;
75358;SDS011;64046;51.978;5.934;2022-10-19T09:34:42;4.95;;;2.13;;
75358;SDS011;64046;51.978;5.934;2022-10-19T09:37:14;3.92;;;2.78;;
75358;SDS011;64046;51.978;5.934;2022-10-19T09:39:44;7.95;;;2.70;;
75358;SDS011;64046;51.978;5.934;2022-10-19T09:42:19;5.90;;;3.03;;
75358;SDS011;64046;51.978;5.934;2022-10-19T09:44:51;5.43;;;2.17;;
75358;SDS011;64046;51.978;5.934;2022-10-19T09:47:27;3.20;;;2.08;;
75358;SDS011;64046;51.978;5.934;2022-10-19T09:50:14;4.47;;;2.03;;
75358;SDS011;64046;51.978;5.934;2022-10-19T09:52:46;7.28;;;2.20;;
75358;SDS011;64046;51.978;5.934;2022-10-19T09:55:19;4.68;;;2.10;;
75358;SDS011;64046;51.978;5.934;2022-10-19T09:58:03;4.80;;;2.17;;
75358;SDS011;64046;51.978;5.934;2022-10-19T10:00:44;5.15;;;1.90;;
75358;SDS011;64046;51.978;5.934;2022-10-19T10:03:22;5.60;;;2.08;;
75358;SDS011;64046;51.978;5.934;2022-10-19T10:05:56;8.80;;;2.95;;
75358;SDS011;64046;51.978;5.934;2022-10-19T10:08:30;7.68;;;2.40;;
75358;SDS011;64046;51.978;5.934;2022-10-19T10:11:06;4.85;;;1.92;;
75358;SDS011;64046;51.978;5.934;2022-10-19T10:13:40;6.53;;;2.05;;
75358;SDS011;64046;51.978;5.934;2022-10-19T10:16:13;6.38;;;2.25;;
75358;SDS011;64046;51.978;5.934;2022-10-19T10:18:48;7.53;;;1.60;;
75358;SDS011;64046;51.978;5.934;2022-10-19T10:21:22;5.30;;;1.90;;
75358;SDS011;64046;51.978;5.934;2022-10-19T10:24:03;3.92;;;1.65;;
75358;SDS011;64046;51.978;5.934;2022-10-19T10:26:36;5.57;;;1.95;;
75358;SDS011;64046;51.978;5.934;2022-10-19T10:29:17;5.72;;;1.50;;
75358;SDS011;64046;51.978;5.934;2022-10-19T10:31:48;5.65;;;2.35;;
75358;SDS011;64046;51.978;5.934;2022-10-19T10:34:30;6.20;;;2.45;;
75358;SDS011;64046;51.978;5.934;2022-10-19T10:37:02;3.10;;;1.77;;
75358;SDS011;64046;51.978;5.934;2022-10-19T10:39:38;7.07;;;2.50;;
75358;SDS011;64046;51.978;5.934;2022-10-19T10:42:09;4.78;;;2.22;;
75358;SDS011;64046;51.978;5.934;2022-10-19T10:44:46;6.45;;;2.05;;
75358;SDS011;64046;51.978;5.934;2022-10-19T10:47:18;8.52;;;2.20;;
75358;SDS011;64046;51.978;5.934;2022-10-19T10:49:52;5.88;;;2.03;;
75358;SDS011;64046;51.978;5.934;2022-10-19T10:52:23;4.60;;;2.20;;
75358;SDS011;64046;51.978;5.934;2022-10-19T10:54:56;6.10;;;2.40;;
75358;SDS011;64046;51.978;5.934;2022-10-19T10:57:27;3.75;;;1.70;;
75358;SDS011;64046;51.978;5.934;2022-10-19T11:00:04;8.30;;;2.20;;
75358;SDS011;64046;51.978;5.934;2022-10-19T11:02:39;4.13;;;1.80;;
75358;SDS011;64046;51.978;5.934;2022-10-19T11:05:14;4.05;;;1.83;;
75358;SDS011;64046;51.978;5.934;2022-10-19T11:07:48;3.95;;;2.00;;
75358;SDS011;64046;51.978;5.934;2022-10-19T11:10:23;3.95;;;1.67;;
75358;SDS011;64046;51.978;5.934;2022-10-19T11:12:58;7.43;;;1.90;;
75358;SDS011;64046;51.978;5.934;2022-10-19T11:15:36;3.10;;;1.20;;
75358;SDS011;64046;51.978;5.934;2022-10-19T11:18:13;6.05;;;1.58;;
75358;SDS011;64046;51.978;5.934;2022-10-19T11:20:48;3.55;;;1.40;;
75358;SDS011;64046;51.978;5.934;2022-10-19T11:23:27;3.60;;;1.40;;
75358;SDS011;64046;51.978;5.934;2022-10-19T11:26:09;4.05;;;1.55;;
75358;SDS011;64046;51.978;5.934;2022-10-19T11:28:54;5.00;;;1.60;;
75358;SDS011;64046;51.978;5.934;2022-10-19T11:31:41;7.78;;;1.33;;
75358;SDS011;64046;51.978;5.934;2022-10-19T11:34:33;5.10;;;1.60;;
75358;SDS011;64046;51.978;5.934;2022-10-19T11:37:15;4.35;;;1.48;;
75358;SDS011;64046;51.978;5.934;2022-10-19T11:39:55;4.20;;;1.33;;
75358;SDS011;64046;51.978;5.934;2022-10-19T11:45:27;6.13;;;1.45;;
75358;SDS011;64046;51.978;5.934;2022-10-19T11:48:12;3.63;;;1.42;;
75358;SDS011;64046;51.978;5.934;2022-10-19T11:50:52;5.75;;;1.60;;
75358;SDS011;64046;51.978;5.934;2022-10-19T11:53:28;5.03;;;1.48;;
75358;SDS011;64046;51.978;5.934;2022-10-19T11:56:03;8.00;;;1.30;;
75358;SDS011;64046;51.978;5.934;2022-10-19T11:58:43;8.45;;;1.60;;
75358;SDS011;64046;51.978;5.934;2022-10-19T12:01:21;6.60;;;1.38;;
75358;SDS011;64046;51.978;5.934;2022-10-19T12:04:06;5.85;;;1.30;;
75358;SDS011;64046;51.978;5.934;2022-10-19T12:06:51;5.35;;;1.90;;
75358;SDS011;64046;51.978;5.934;2022-10-19T12:09:32;5.05;;;1.50;;
75358;SDS011;64046;51.978;5.934;2022-10-19T12:12:15;6.22;;;1.50;;
75358;SDS011;64046;51.978;5.934;2022-10-19T12:15:00;3.72;;;1.45;;
75358;SDS011;64046;51.978;5.934;2022-10-19T12:17:41;7.63;;;1.50;;
75358;SDS011;64046;51.978;5.934;2022-10-19T12:20:18;3.25;;;1.58;;
75358;SDS011;64046;51.978;5.934;2022-10-19T12:22:52;6.38;;;1.50;;
75358;SDS011;64046;51.978;5.934;2022-10-19T12:25:21;5.30;;;1.50;;
75358;SDS011;64046;51.978;5.934;2022-10-19T12:27:52;3.50;;;1.60;;
75358;SDS011;64046;51.978;5.934;2022-10-19T12:30:22;7.65;;;1.48;;
75358;SDS011;64046;51.978;5.934;2022-10-19T12:32:58;7.72;;;1.40;;
75358;SDS011;64046;51.978;5.934;2022-10-19T12:35:54;4.50;;;1.75;;
75358;SDS011;64046;51.978;5.934;2022-10-19T12:38:32;5.78;;;1.85;;
75358;SDS011;64046;51.978;5.934;2022-10-19T12:41:11;4.57;;;1.50;;
75358;SDS011;64046;51.978;5.934;2022-10-19T12:43:51;6.10;;;1.60;;
75358;SDS011;64046;51.978;5.934;2022-10-19T12:46:30;5.53;;;1.67;;
75358;SDS011;64046;51.978;5.934;2022-10-19T12:52:14;5.38;;;1.38;;
75358;SDS011;64046;51.978;5.934;2022-10-19T12:54:45;4.45;;;1.13;;
75358;SDS011;64046;51.978;5.934;2022-10-19T12:57:28;4.32;;;1.48;;
75358;SDS011;64046;51.978;5.934;2022-10-19T13:00:03;4.05;;;1.48;;
75358;SDS011;64046;51.978;5.934;2022-10-19T13:02:34;3.67;;;1.25;;
75358;SDS011;64046;51.978;5.934;2022-10-19T13:05:17;8.85;;;1.73;;
75358;SDS011;64046;51.978;5.934;2022-10-19T13:07:50;6.70;;;1.35;;
75358;SDS011;64046;51.978;5.934;2022-10-19T13:10:21;3.42;;;1.48;;
75358;SDS011;64046;51.978;5.934;2022-10-19T13:12:53;4.50;;;1.17;;
75358;SDS011;64046;51.978;5.934;2022-10-19T13:21:43;3.38;;;1.10;;
75358;SDS011;64046;51.978;5.934;2022-10-19T13:24:28;6.63;;;1.48;;
75358;SDS011;64046;51.978;5.934;2022-10-19T13:29:55;4.20;;;1.48;;
75358;SDS011;64046;51.978;5.934;2022-10-19T13:35:22;3.50;;;1.17;;
75358;SDS011;64046;51.978;5.934;2022-10-19T13:40:58;7.78;;;1.58;;
75358;SDS011;64046;51.978;5.934;2022-10-19T13:43:33;2.47;;;1.30;;
75358;SDS011;64046;51.978;5.934;2022-10-19T13:46:08;5.68;;;1.98;;
75358;SDS011;64046;51.978;5.934;2022-10-19T13:51:50;6.93;;;1.33;;
75358;SDS011;64046;51.978;5.934;2022-10-19T13:54:35;4.88;;;1.55;;
75358;SDS011;64046;51.978;5.934;2022-10-19T13:57:21;4.90;;;1.35;;
75358;SDS011;64046;51.978;5.934;2022-10-19T14:00:01;3.03;;;1.33;;
75358;SDS011;64046;51.978;5.934;2022-10-19T14:05:59;2.50;;;1.20;;
75358;SDS011;64046;51.978;5.934;2022-10-19T14:08:42;3.15;;;1.58;;
75358;SDS011;64046;51.978;5.934;2022-10-19T14:11:24;3.33;;;1.23;;
75358;SDS011;64046;51.978;5.934;2022-10-19T14:16:47;6.57;;;1.52;;
75358;SDS011;64046;51.978;5.934;2022-10-19T14:19:22;5.53;;;1.33;;
75358;SDS011;64046;51.978;5.934;2022-10-19T14:21:54;1.95;;;1.20;;
75358;SDS011;64046;51.978;5.934;2022-10-19T14:24:29;1.85;;;1.17;;
75358;SDS011;64046;51.978;5.934;2022-10-19T14:27:00;2.80;;;1.20;;
75358;SDS011;64046;51.978;5.934;2022-10-19T14:29:34;3.25;;;1.40;;
75358;SDS011;64046;51.978;5.934;2022-10-19T14:32:12;3.80;;;1.30;;
75358;SDS011;64046;51.978;5.934;2022-10-19T14:34:42;5.95;;;1.70;;
75358;SDS011;64046;51.978;5.934;2022-10-19T14:37:16;5.18;;;1.50;;
75358;SDS011;64046;51.978;5.934;2022-10-19T14:39:57;5.45;;;1.50;;
75358;SDS011;64046;51.978;5.934;2022-10-19T14:42:38;4.22;;;1.55;;
75358;SDS011;64046;51.978;5.934;2022-10-19T14:45:14;9.07;;;1.80;;
75358;SDS011;64046;51.978;5.934;2022-10-19T14:47:58;3.75;;;1.30;;
75358;SDS011;64046;51.978;5.934;2022-10-19T14:50:36;5.40;;;1.98;;
75358;SDS011;64046;51.978;5.934;2022-10-19T14:53:17;4.30;;;2.15;;
75358;SDS011;64046;51.978;5.934;2022-10-19T14:55:57;3.53;;;1.48;;
75358;SDS011;64046;51.978;5.934;2022-10-19T14:58:30;7.20;;;2.00;;
75358;SDS011;64046;51.978;5.934;2022-10-19T15:01:09;4.25;;;1.90;;
75358;SDS011;64046;51.978;5.934;2022-10-19T15:03:40;4.75;;;2.00;;
75358;SDS011;64046;51.978;5.934;2022-10-19T15:06:15;5.78;;;1.80;;
75358;SDS011;64046;51.978;5.934;2022-10-19T15:08:46;4.05;;;1.38;;
75358;SDS011;64046;51.978;5.934;2022-10-19T15:11:19;5.80;;;1.60;;
75358;SDS011;64046;51.978;5.934;2022-10-19T15:13:59;5.53;;;1.05;;
75358;SDS011;64046;51.978;5.934;2022-10-19T15:16:40;5.35;;;1.65;;
75358;SDS011;64046;51.978;5.934;2022-10-19T15:19:15;4.65;;;1.40;;
75358;SDS011;64046;51.978;5.934;2022-10-19T15:21:46;3.95;;;1.17;;
75358;SDS011;64046;51.978;5.934;2022-10-19T15:24:20;1.90;;;1.20;;
75358;SDS011;64046;51.978;5.934;2022-10-19T15:26:53;5.68;;;1.73;;
75358;SDS011;64046;51.978;5.934;2022-10-19T15:29:27;3.67;;;1.88;;
75358;SDS011;64046;51.978;5.934;2022-10-19T15:34:49;8.32;;;2.63;;
75358;SDS011;64046;51.978;5.934;2022-10-19T15:37:20;4.63;;;2.50;;
75358;SDS011;64046;51.978;5.934;2022-10-19T15:39:50;6.07;;;2.00;;
75358;SDS011;64046;51.978;5.934;2022-10-19T15:42:21;4.75;;;2.10;;
75358;SDS011;64046;51.978;5.934;2022-10-19T15:54:01;7.03;;;2.33;;
75358;SDS011;64046;51.978;5.934;2022-10-19T15:56:32;5.85;;;2.42;;
75358;SDS011;64046;51.978;5.934;2022-10-19T15:59:03;6.72;;;2.53;;
75358;SDS011;64046;51.978;5.934;2022-10-19T16:01:37;7.25;;;2.70;;
75358;SDS011;64046;51.978;5.934;2022-10-19T16:04:09;6.22;;;2.53;;
75358;SDS011;64046;51.978;5.934;2022-10-19T16:06:38;7.55;;;2.80;;
75358;SDS011;64046;51.978;5.934;2022-10-19T16:09:12;4.03;;;2.40;;
75358;SDS011;64046;51.978;5.934;2022-10-19T16:11:44;4.13;;;2.22;;
75358;SDS011;64046;51.978;5.934;2022-10-19T16:14:13;6.63;;;2.40;;
75358;SDS011;64046;51.978;5.934;2022-10-19T16:16:42;5.30;;;2.50;;
75358;SDS011;64046;51.978;5.934;2022-10-19T16:19:14;6.88;;;2.42;;